createdAt,value
2019-04-21T00:00:54.265Z,99.90
2019-04-21T00:03:30.268Z,99.90
2019-04-21T00:06:16.698Z,99.90
2019-04-21T00:09:04.198Z,99.90
2019-04-21T00:11:22.428Z,99.90
2019-04-21T00:13:44.699Z,99.90
2019-04-21T00:16:07.584Z,99.90
2019-04-21T00:18:47.660Z,99.90
2019-04-21T00:21:22.543Z,99.90
2019-04-21T00:24:03.882Z,99.90
2019-04-21T00:26:33.404Z,99.90
2019-04-21T00:29:16.452Z,99.90
2019-04-21T00:31:40.082Z,99.90
2019-04-21T00:33:55.147Z,99.90
2019-04-21T00:36:38.203Z,99.90
2019-04-21T00:39:31.714Z,99.90
2019-04-21T00:41:56.180Z,99.90
2019-04-21T00:44:17.682Z,99.90
2019-04-21T00:46:58.395Z,99.90
2019-04-21T00:49:28.463Z,99.90
2019-04-21T00:52:33.323Z,99.90
2019-04-21T00:55:10.382Z,99.90
2019-04-21T00:57:34.263Z,99.90
2019-04-21T01:00:00.784Z,99.90
2019-04-21T01:02:39.913Z,99.90
2019-04-21T01:05:11.865Z,99.90
2019-04-21T01:07:37.247Z,99.90
2019-04-21T01:10:05.326Z,99.90
2019-04-21T01:12:44.500Z,99.90
2019-04-21T01:15:24.646Z,99.90
2019-04-21T01:17:49.300Z,99.90
2019-04-21T01:20:13.016Z,99.90
2019-04-21T01:22:32.936Z,99.90
2019-04-21T01:25:11.919Z,99.90
2019-04-21T01:27:54.191Z,99.90
2019-04-21T01:30:29.758Z,99.90
2019-04-21T01:33:07.938Z,99.90
2019-04-21T01:35:40.299Z,99.90
2019-04-21T01:38:14.634Z,99.90
2019-04-21T01:40:47.742Z,99.90
2019-04-21T01:43:15.032Z,99.90
2019-04-21T01:45:51.938Z,99.90
2019-04-21T01:48:21.646Z,99.90
2019-04-21T01:50:55.758Z,99.90
2019-04-21T01:53:37.469Z,99.90
2019-04-21T01:56:13.052Z,99.90
2019-04-21T01:58:38.777Z,99.90
2019-04-21T02:01:24.588Z,99.90
2019-04-21T02:03:56.954Z,99.90
2019-04-21T02:06:46.408Z,99.90
2019-04-21T02:09:01.910Z,99.90
2019-04-21T02:11:35.482Z,99.90
2019-04-21T02:14:12.946Z,99.90
2019-04-21T02:16:42.314Z,99.90
2019-04-21T02:19:04.371Z,99.90
2019-04-21T02:21:39.264Z,99.90
2019-04-21T02:24:29.940Z,99.90
2019-04-21T02:26:54.300Z,99.90
2019-04-21T02:29:29.036Z,99.90
2019-04-21T02:34:41.727Z,99.90
2019-04-21T02:37:27.701Z,99.90
2019-04-21T02:39:49.530Z,99.90
2019-04-21T02:42:20.052Z,99.90
2019-04-21T02:47:33.821Z,99.90
2019-04-21T02:49:59.647Z,99.90
2019-04-21T02:52:31.069Z,99.90
2019-04-21T02:55:11.299Z,99.90
2019-04-21T02:57:35.182Z,99.90
2019-04-21T03:00:13.661Z,99.90
2019-04-21T03:02:54.485Z,99.90
2019-04-21T03:05:41.721Z,99.90
2019-04-21T03:08:09.847Z,99.90
2019-04-21T03:13:15.179Z,99.90
2019-04-21T03:15:55.608Z,99.90
2019-04-21T03:18:26.392Z,99.90
2019-04-21T03:21:01.215Z,99.90
2019-04-21T03:23:30.217Z,99.90
2019-04-21T03:25:50.349Z,99.90
2019-04-21T03:28:30.559Z,99.90
2019-04-21T03:31:25.192Z,99.90
2019-04-21T03:38:39.410Z,99.90
2019-04-21T03:41:10.544Z,99.90
2019-04-21T03:43:44.690Z,99.90
2019-04-21T03:51:20.226Z,99.90
2019-04-21T03:56:46.345Z,99.90
2019-04-21T03:58:58.436Z,99.90
2019-04-21T04:01:44.495Z,99.90
2019-04-21T04:15:06.825Z,99.90
2019-04-21T04:17:33.891Z,99.90
2019-04-21T04:20:19.217Z,99.90
2019-04-21T04:22:52.116Z,99.90
2019-04-21T04:25:27.334Z,99.90
2019-04-21T04:32:46.278Z,99.90
2019-04-21T04:35:52.568Z,99.90
2019-04-21T04:38:00.848Z,99.90
2019-04-21T04:40:31.376Z,99.90
2019-04-21T04:50:50.076Z,99.90
2019-04-21T04:55:51.013Z,99.90
2019-04-21T04:58:36.337Z,99.90
2019-04-21T05:03:34.702Z,99.90
2019-04-21T05:09:02.773Z,99.90
2019-04-21T05:16:41.485Z,99.90
2019-04-21T05:19:13.206Z,99.90
2019-04-21T05:23:56.503Z,99.90
2019-04-21T05:26:27.229Z,99.90
2019-04-21T05:28:58.981Z,99.90
2019-04-21T05:31:44.552Z,99.90
2019-04-21T05:34:17.318Z,99.90
2019-04-21T05:36:52.350Z,99.90
2019-04-21T05:39:26.197Z,99.90
2019-04-21T05:41:52.341Z,99.90
2019-04-21T05:44:44.477Z,99.90
2019-04-21T05:47:23.616Z,99.90
2019-04-21T05:49:45.643Z,99.90
2019-04-21T05:52:19.157Z,99.90
2019-04-21T05:54:57.419Z,99.90
2019-04-21T05:57:20.620Z,99.90
2019-04-21T06:00:12.468Z,99.90
2019-04-21T06:02:30.716Z,99.90
2019-04-21T06:07:34.911Z,99.20
2019-04-21T06:10:16.911Z,99.70
2019-04-21T06:12:43.135Z,99.50
2019-04-21T06:15:14.313Z,98.20
2019-04-21T06:17:52.530Z,96.30
2019-04-21T06:20:21.040Z,96.80
2019-04-21T06:22:50.626Z,96.40
2019-04-21T06:27:57.224Z,94.60
2019-04-21T06:30:33.173Z,92.60
2019-04-21T06:33:04.925Z,92.20
2019-04-21T06:36:11.457Z,90.10
2019-04-21T06:39:01.503Z,91.80
2019-04-21T06:41:29.762Z,90.80
2019-04-21T06:43:59.922Z,89.60
2019-04-21T06:46:30.673Z,87.50
2019-04-21T06:49:01.251Z,84.80
2019-04-21T06:51:32.273Z,81.40
2019-04-21T06:54:03.431Z,82.70
2019-04-21T06:56:42.329Z,84.20
2019-04-21T06:59:06.451Z,79.50
2019-04-21T07:01:42.264Z,76.90
2019-04-21T07:04:21.019Z,74.60
2019-04-21T07:06:50.101Z,71.60
2019-04-21T07:09:22.443Z,71.10
2019-04-21T07:11:48.972Z,67.60
2019-04-21T07:17:00.657Z,67.40
2019-04-21T07:22:04.546Z,67.60
2019-04-21T07:27:11.707Z,69.20
2019-04-21T07:29:39.524Z,65.20
2019-04-21T07:32:09.341Z,66.80
2019-04-21T07:34:47.624Z,64.80
2019-04-21T07:37:10.252Z,60.80
2019-04-21T07:39:47.680Z,62.80
2019-04-21T07:42:13.284Z,60.30
2019-04-21T07:44:46.378Z,60.60
2019-04-21T07:47:28.491Z,60.60
2019-04-21T07:50:07.523Z,58.30
2019-04-21T07:57:54.826Z,56.20
2019-04-21T08:00:36.829Z,57.90
2019-04-21T08:03:20.735Z,54.70
2019-04-21T08:05:43.998Z,56.90
2019-04-21T08:08:05.189Z,53.50
2019-04-21T08:10:42.038Z,54.10
2019-04-21T08:13:18.800Z,52.90
2019-04-21T08:16:07.715Z,52.00
2019-04-21T08:18:21.092Z,51.20
2019-04-21T08:20:54.927Z,50.40
2019-04-21T08:28:32.308Z,52.10
2019-04-21T08:31:09.943Z,50.10
2019-04-21T08:33:49.645Z,49.50
2019-04-21T08:36:21.570Z,51.50
2019-04-21T08:41:13.687Z,50.20
2019-04-21T08:43:54.610Z,47.50
2019-04-21T08:46:25.354Z,48.10
2019-04-21T08:48:56.748Z,48.00
2019-04-21T08:51:33.400Z,48.80
2019-04-21T08:54:07.374Z,48.60
2019-04-21T08:56:34.118Z,45.60
2019-04-21T08:59:24.318Z,45.60
2019-04-21T09:02:02.979Z,47.10
2019-04-21T09:04:30.186Z,47.10
2019-04-21T09:07:13.807Z,47.80
2019-04-21T09:09:45.656Z,47.60
2019-04-21T09:12:10.641Z,44.50
2019-04-21T09:14:41.898Z,45.90
2019-04-21T09:17:13.333Z,45.80
2019-04-21T09:22:16.800Z,45.30
2019-04-21T09:24:53.519Z,44.80
2019-04-21T09:27:20.166Z,45.30
2019-04-21T09:29:46.787Z,46.10
2019-04-21T09:32:20.266Z,43.10
2019-04-21T09:34:47.849Z,44.20
2019-04-21T09:37:32.912Z,41.70
2019-04-21T09:39:59.084Z,40.60
2019-04-21T09:42:47.339Z,43.50
2019-04-21T09:45:22.454Z,42.40
2019-04-21T09:48:05.439Z,40.80
2019-04-21T09:50:38.297Z,41.10
2019-04-21T09:53:20.428Z,41.40
2019-04-21T09:55:59.783Z,41.20
2019-04-21T09:58:40.843Z,44.40
2019-04-21T10:01:21.635Z,41.20
2019-04-21T10:03:53.299Z,39.30
2019-04-21T10:06:22.069Z,41.50
2019-04-21T10:09:07.897Z,37.70
2019-04-21T10:11:41.678Z,37.60
2019-04-21T10:14:17.805Z,39.80
2019-04-21T10:16:58.369Z,37.30
2019-04-21T10:19:31.970Z,37.80
2019-04-21T10:22:08.366Z,39.80
2019-04-21T10:24:56.372Z,36.90
2019-04-21T10:27:32.022Z,39.30
2019-04-21T10:30:05.787Z,35.30
2019-04-21T10:32:42.818Z,35.90
2019-04-21T10:35:21.782Z,37.30
2019-04-21T10:38:09.025Z,36.80
2019-04-21T10:40:33.970Z,34.10
2019-04-21T10:43:11.960Z,33.00
2019-04-21T10:45:44.127Z,33.70
2019-04-21T10:48:19.022Z,36.60
2019-04-21T10:50:53.007Z,32.70
2019-04-21T10:53:31.196Z,35.30
2019-04-21T10:56:15.394Z,35.50
2019-04-21T10:58:42.419Z,33.60
2019-04-21T11:01:21.044Z,35.40
2019-04-21T11:03:59.006Z,36.40
2019-04-21T11:06:35.066Z,35.00
2019-04-21T11:09:10.998Z,33.70
2019-04-21T11:11:49.879Z,36.50
2019-04-21T11:14:23.026Z,34.80
2019-04-21T11:16:54.837Z,34.30
2019-04-21T11:19:26.720Z,34.20
2019-04-21T11:21:58.691Z,36.80
2019-04-21T11:24:31.137Z,35.80
2019-04-21T11:27:02.429Z,37.00
2019-04-21T11:29:33.354Z,37.30
2019-04-21T11:32:05.230Z,35.10
2019-04-21T11:34:36.794Z,35.30
2019-04-21T11:37:10.226Z,35.40
2019-04-21T11:39:52.001Z,32.80
2019-04-21T11:42:17.727Z,32.60
2019-04-21T11:44:49.375Z,35.20
2019-04-21T11:47:22.751Z,34.50
2019-04-21T11:49:54.965Z,33.80
2019-04-21T11:52:27.141Z,33.60
2019-04-21T11:54:58.574Z,31.60
2019-04-21T11:57:34.952Z,34.10
2019-04-21T12:00:02.216Z,35.00
2019-04-21T12:02:33.689Z,35.10
2019-04-21T12:05:05.476Z,35.00
2019-04-21T12:07:37.527Z,33.40
2019-04-21T12:10:11.226Z,34.10
2019-04-21T12:12:43.325Z,35.00
2019-04-21T12:15:16.711Z,34.20
2019-04-21T12:17:48.048Z,35.40
2019-04-21T12:20:21.216Z,32.00
2019-04-21T12:22:52.916Z,33.30
2019-04-21T12:25:27.129Z,32.20
2019-04-21T12:27:58.907Z,34.90
2019-04-21T12:30:31.569Z,33.50
2019-04-21T12:33:04.630Z,32.20
2019-04-21T12:35:37.691Z,34.20
2019-04-21T12:38:09.275Z,34.00
2019-04-21T12:40:42.306Z,33.40
2019-04-21T12:43:14.739Z,34.00
2019-04-21T12:45:46.147Z,34.60
2019-04-21T12:48:18.016Z,33.20
2019-04-21T12:50:49.935Z,34.00
2019-04-21T12:53:21.450Z,35.50
2019-04-21T12:55:53.807Z,35.20
2019-04-21T12:58:26.912Z,34.00
2019-04-21T13:00:58.940Z,33.10
2019-04-21T13:03:30.505Z,31.70
2019-04-21T13:06:01.660Z,33.10
2019-04-21T13:08:45.682Z,33.50
2019-04-21T13:11:09.394Z,32.00
2019-04-21T13:13:41.888Z,33.30
2019-04-21T13:16:13.651Z,31.30
2019-04-21T13:18:49.157Z,32.90
2019-04-21T13:21:20.520Z,32.50
2019-04-21T13:23:52.760Z,34.10
2019-04-21T13:26:32.752Z,32.00
2019-04-21T13:28:58.394Z,32.10
2019-04-21T13:31:30.024Z,33.60
2019-04-21T13:34:02.140Z,33.70
2019-04-21T13:36:33.882Z,34.70
2019-04-21T13:39:38.015Z,34.60
2019-04-21T13:41:54.157Z,32.10
2019-04-21T13:44:17.697Z,32.30
2019-04-21T13:46:49.223Z,33.80
2019-04-21T13:49:23.460Z,33.90
2019-04-21T13:51:57.247Z,34.00
2019-04-21T13:54:29.545Z,32.30
2019-04-21T13:57:02.678Z,33.30
2019-04-21T13:59:38.121Z,33.00
2019-04-21T14:02:11.145Z,32.50
2019-04-21T14:04:43.275Z,31.90
2019-04-21T14:07:14.639Z,31.40
2019-04-21T14:09:54.971Z,34.00
2019-04-21T14:12:21.253Z,34.40
2019-04-21T14:14:52.872Z,34.00
2019-04-21T14:17:24.672Z,32.90
2019-04-21T14:19:57.286Z,33.90
2019-04-21T14:22:28.704Z,33.70
2019-04-21T14:24:59.857Z,33.80
2019-04-21T14:27:32.181Z,34.10
2019-04-21T14:30:08.303Z,34.90
2019-04-21T14:32:40.181Z,33.50
2019-04-21T14:35:12.522Z,32.50
2019-04-21T14:37:44.526Z,32.10
2019-04-21T14:40:23.653Z,33.00
2019-04-21T14:42:50.424Z,32.00
2019-04-21T14:45:23.014Z,34.00
2019-04-21T14:48:03.044Z,33.90
2019-04-21T14:50:37.461Z,35.40
2019-04-21T14:53:20.217Z,35.80
2019-04-21T14:55:51.509Z,34.40
2019-04-21T14:58:23.401Z,36.50
2019-04-21T15:00:59.966Z,35.40
2019-04-21T15:03:32.092Z,36.10
2019-04-21T15:06:03.408Z,36.60
2019-04-21T15:08:35.405Z,35.80
2019-04-21T15:11:08.918Z,36.60
2019-04-21T15:13:41.669Z,38.30
2019-04-21T15:16:13.079Z,39.20
2019-04-21T15:18:44.619Z,37.30
2019-04-21T15:21:17.541Z,39.30
2019-04-21T15:23:49.030Z,40.50
2019-04-21T15:26:24.159Z,38.50
2019-04-21T15:28:57.029Z,38.90
2019-04-21T15:31:34.474Z,39.90
2019-04-21T15:34:03.678Z,39.40
2019-04-21T15:36:35.184Z,42.50
2019-04-21T15:39:09.859Z,41.90
2019-04-21T15:41:43.080Z,41.00
2019-04-21T15:44:14.646Z,39.20
2019-04-21T15:46:48.073Z,41.70
2019-04-21T15:49:20.725Z,41.40
2019-04-21T15:51:53.814Z,41.70
2019-04-21T15:54:27.156Z,42.30
2019-04-21T15:57:00.710Z,41.20
2019-04-21T15:59:42.131Z,42.90
2019-04-21T16:02:32.756Z,42.40
2019-04-21T16:05:08.533Z,42.10
2019-04-21T16:07:41.149Z,41.70
2019-04-21T16:10:28.535Z,42.00
2019-04-21T16:12:52.042Z,42.00
2019-04-21T16:15:26.281Z,43.90
2019-04-21T16:17:59.374Z,41.80
2019-04-21T16:20:32.181Z,42.10
2019-04-21T16:23:04.550Z,42.30
2019-04-21T16:25:37.055Z,41.80
2019-04-21T16:28:08.898Z,43.60
2019-04-21T16:30:44.675Z,41.90
2019-04-21T16:33:16.386Z,42.30
2019-04-21T16:35:47.627Z,43.00
2019-04-21T16:38:19.706Z,43.70
2019-04-21T16:40:57.479Z,44.50
2019-04-21T16:43:27.034Z,43.80
2019-04-21T16:45:59.091Z,44.40
2019-04-21T16:48:30.986Z,44.70
2019-04-21T16:51:05.623Z,45.40
2019-04-21T16:53:53.720Z,44.70
2019-04-21T16:56:29.095Z,44.10
2019-04-21T16:59:06.323Z,46.60
2019-04-21T17:01:38.501Z,46.10
2019-04-21T17:04:10.636Z,46.00
2019-04-21T17:06:43.258Z,45.30
2019-04-21T17:09:16.766Z,47.50
2019-04-21T17:11:57.518Z,46.00
2019-04-21T17:14:48.180Z,47.20
2019-04-21T17:17:17.933Z,47.30
2019-04-21T17:19:36.030Z,48.10
2019-04-21T17:22:05.848Z,48.60
2019-04-21T17:24:40.205Z,48.90
2019-04-21T17:27:13.175Z,47.60
2019-04-21T17:29:46.379Z,49.70
2019-04-21T17:32:18.403Z,50.40
2019-04-21T17:34:50.031Z,51.40
2019-04-21T17:37:25.035Z,52.10
2019-04-21T17:39:56.880Z,52.80
2019-04-21T17:42:37.663Z,53.10
2019-04-21T17:45:03.651Z,54.00
2019-04-21T17:47:44.904Z,54.10
2019-04-21T17:50:11.732Z,54.60
2019-04-21T17:53:07.227Z,54.70
2019-04-21T17:55:40.662Z,55.60
2019-04-21T17:58:27.283Z,56.10
2019-04-21T18:06:10.499Z,57.60
2019-04-21T18:08:46.475Z,57.90
2019-04-21T18:11:12.722Z,58.50
2019-04-21T18:13:37.564Z,58.20
2019-04-21T18:16:20.755Z,58.90
2019-04-21T18:18:42.131Z,59.60
2019-04-21T18:21:21.016Z,60.20
2019-04-21T18:24:04.884Z,60.20
2019-04-21T18:26:39.138Z,61.00
2019-04-21T18:29:01.348Z,62.10
2019-04-21T18:31:39.793Z,64.20
2019-04-21T18:34:14.682Z,66.90
2019-04-21T18:36:52.016Z,67.20
2019-04-21T18:39:38.158Z,67.30
2019-04-21T18:42:17.117Z,67.40
2019-04-21T18:45:36.085Z,68.60
2019-04-21T18:47:53.723Z,70.10
2019-04-21T18:50:41.770Z,71.90
2019-04-21T18:53:16.552Z,72.50
2019-04-21T18:55:48.146Z,74.80
2019-04-21T18:58:18.128Z,75.50
2019-04-21T19:00:51.126Z,77.70
2019-04-21T19:03:29.247Z,78.70
2019-04-21T19:06:05.159Z,81.70
2019-04-21T19:08:53.735Z,82.10
2019-04-21T19:11:26.883Z,83.50
2019-04-21T19:14:19.763Z,84.90
2019-04-21T19:16:49.813Z,86.00
2019-04-21T19:21:50.432Z,90.60
2019-04-21T19:24:43.152Z,91.90
2019-04-21T19:29:58.317Z,93.60
2019-04-21T19:32:13.715Z,95.40
2019-04-21T19:34:32.273Z,96.40
2019-04-21T19:37:10.860Z,96.90
2019-04-21T19:39:52.763Z,98.70
2019-04-21T19:42:22.615Z,99.90
2019-04-21T19:44:59.423Z,99.90
2019-04-21T19:47:43.320Z,99.90
2019-04-21T19:50:11.199Z,99.90
2019-04-21T19:52:34.647Z,99.90
2019-04-21T19:54:56.777Z,99.90
2019-04-21T19:57:29.422Z,99.90
2019-04-21T20:00:06.158Z,99.90
2019-04-21T20:02:38.481Z,99.90
2019-04-21T20:05:25.560Z,99.90
2019-04-21T20:08:11.806Z,99.90
2019-04-21T20:10:55.080Z,99.90
2019-04-21T20:13:45.377Z,99.90
2019-04-21T20:16:07.965Z,99.90
2019-04-21T20:18:34.883Z,99.90
2019-04-21T20:21:02.204Z,99.90
2019-04-21T20:23:42.563Z,99.90
2019-04-21T20:26:17.559Z,99.90
2019-04-21T20:29:07.268Z,99.90
2019-04-21T20:31:48.634Z,99.90
2019-04-21T20:34:33.430Z,99.90
2019-04-21T20:37:05.881Z,99.90
2019-04-21T20:39:26.971Z,99.90
2019-04-21T20:42:19.451Z,99.90
2019-04-21T20:45:16.177Z,99.90
2019-04-21T20:47:29.382Z,99.90
2019-04-21T20:50:11.682Z,99.90
2019-04-21T20:52:55.206Z,99.90
2019-04-21T20:55:22.399Z,99.90
2019-04-21T20:57:58.273Z,99.90
2019-04-21T21:00:55.843Z,99.90
2019-04-21T21:03:33.438Z,99.90
2019-04-21T21:05:58.127Z,99.90
2019-04-21T21:08:41.194Z,99.90
2019-04-21T21:11:21.324Z,99.90
2019-04-21T21:13:58.689Z,99.90
2019-04-21T21:16:35.100Z,99.90
2019-04-21T21:21:39.987Z,99.90
2019-04-21T21:24:29.052Z,99.90
2019-04-21T21:26:53.128Z,99.90
2019-04-21T21:29:48.098Z,99.90
2019-04-21T21:32:16.595Z,99.90
2019-04-21T21:34:47.921Z,99.90
2019-04-21T21:37:29.336Z,99.90
2019-04-21T21:42:09.859Z,99.90
2019-04-21T21:44:50.553Z,99.90
2019-04-21T21:47:31.951Z,99.90
2019-04-21T21:49:57.858Z,99.90
2019-04-21T21:52:35.410Z,99.90
2019-04-21T21:54:52.058Z,99.90
2019-04-21T21:57:24.148Z,99.90
2019-04-21T22:00:02.831Z,99.90
2019-04-21T22:02:34.853Z,99.90
2019-04-21T22:05:08.685Z,99.90
2019-04-21T22:07:33.718Z,99.90
2019-04-21T22:10:08.507Z,99.90
2019-04-21T22:12:51.569Z,99.90
2019-04-21T22:15:18.893Z,99.90
2019-04-21T22:18:09.094Z,99.90
2019-04-21T22:20:37.839Z,99.90
2019-04-21T22:23:01.031Z,99.90
2019-04-21T22:25:29.578Z,99.90
2019-04-21T22:27:57.888Z,99.90
2019-04-21T22:30:36.620Z,99.90
2019-04-21T22:33:06.958Z,99.90
2019-04-21T22:35:41.829Z,99.90
2019-04-21T22:38:20.807Z,99.90
2019-04-21T22:40:50.680Z,99.90
2019-04-21T22:43:24.282Z,99.90
2019-04-21T22:45:45.226Z,99.90
2019-04-21T22:48:20.114Z,99.90
2019-04-21T22:50:48.923Z,99.90
2019-04-21T22:53:21.290Z,99.90
2019-04-21T22:56:00.070Z,99.90
2019-04-21T22:58:29.330Z,99.90
2019-04-21T23:01:01.551Z,99.90
2019-04-21T23:03:30.755Z,99.90
2019-04-21T23:06:09.733Z,99.90
2019-04-21T23:08:40.492Z,99.90
2019-04-21T23:11:12.409Z,99.90
2019-04-21T23:13:46.041Z,99.90
2019-04-21T23:16:22.788Z,99.90
2019-04-21T23:19:07.504Z,99.90
2019-04-21T23:21:36.363Z,99.90
2019-04-21T23:24:11.272Z,99.90
2019-04-21T23:26:44.863Z,99.90
2019-04-21T23:29:17.420Z,99.90
2019-04-21T23:31:52.084Z,99.90
2019-04-21T23:34:04.468Z,99.90
2019-04-21T23:36:37.588Z,99.90
2019-04-21T23:39:15.692Z,99.90
2019-04-21T23:41:46.203Z,99.90
2019-04-21T23:44:15.155Z,99.90
2019-04-21T23:46:51.054Z,99.90
2019-04-21T23:49:33.978Z,99.90
2019-04-21T23:52:00.323Z,99.90
2019-04-21T23:54:25.300Z,99.90
2019-04-21T23:56:58.022Z,99.90
2019-04-21T23:59:32.384Z,99.90
